createdAt,value
2017-06-15T00:00:11.498Z,63.99
2017-06-15T00:01:11.496Z,64.09
2017-06-15T00:02:11.487Z,64.15
2017-06-15T00:03:11.483Z,63.86
2017-06-15T00:04:11.476Z,63.89
2017-06-15T00:05:11.469Z,63.67
2017-06-15T00:06:11.161Z,63.76
2017-06-15T00:07:11.461Z,63.76
2017-06-15T00:08:11.453Z,63.86
2017-06-15T00:09:11.448Z,64.53
2017-06-15T00:10:11.442Z,64.43
2017-06-15T00:11:11.437Z,64.15
2017-06-15T00:12:11.432Z,64.53
2017-06-15T00:13:11.425Z,64.43
2017-06-15T00:14:11.118Z,64.15
2017-06-15T00:15:11.413Z,64.15
2017-06-15T00:16:11.108Z,64.25
2017-06-15T00:17:11.406Z,64.25
2017-06-15T00:18:11.398Z,64.34
2017-06-15T00:19:11.392Z,64.05
2017-06-15T00:20:11.387Z,64.34
2017-06-15T00:21:11.380Z,64.05
2017-06-15T00:22:11.374Z,64.15
2017-06-15T00:23:11.370Z,64.53
2017-06-15T00:24:11.366Z,64.62
2017-06-15T00:25:11.357Z,64.62
2017-06-15T00:26:11.352Z,64.62
2017-06-15T00:27:11.346Z,64.53
2017-06-15T00:28:11.340Z,64.53
2017-06-15T00:29:11.336Z,64.53
2017-06-15T00:30:11.329Z,65.01
2017-06-15T00:31:11.343Z,64.62
2017-06-15T00:32:11.319Z,64.81
2017-06-15T00:33:11.315Z,65.01
2017-06-15T00:34:11.307Z,64.91
2017-06-15T00:35:11.303Z,65.39
2017-06-15T00:36:11.295Z,65.1
2017-06-15T00:37:11.291Z,65.1
2017-06-15T00:38:11.288Z,65.1
2017-06-15T00:39:11.282Z,65.1
2017-06-15T00:40:11.271Z,64.91
2017-06-15T00:41:11.267Z,65.2
2017-06-15T00:42:11.261Z,65.1
2017-06-15T00:43:11.256Z,65.01
2017-06-15T00:44:11.249Z,65.2
2017-06-15T00:45:11.245Z,65.01
2017-06-15T00:46:11.241Z,65.2
2017-06-15T00:47:11.234Z,65.39
2017-06-15T00:48:11.228Z,65.39
2017-06-15T00:49:11.225Z,65.58
2017-06-15T00:50:11.219Z,65.77
2017-06-15T00:51:11.211Z,65.77
2017-06-15T00:52:11.206Z,65.39
2017-06-15T00:53:11.202Z,65.58
2017-06-15T00:54:11.191Z,65.3
2017-06-15T00:55:11.189Z,65.48
2017-06-15T00:56:11.181Z,65.58
2017-06-15T00:57:11.177Z,65.48
2017-06-15T00:58:11.171Z,65.48
2017-06-15T00:59:11.167Z,65.39
2017-06-15T01:00:11.162Z,65.67
2017-06-15T01:01:10.850Z,65.1
2017-06-15T01:02:10.844Z,65.87
2017-06-15T01:03:11.141Z,66.06
2017-06-15T01:04:11.139Z,66.25
2017-06-15T01:05:11.131Z,65.87
2017-06-15T01:06:11.123Z,66.06
2017-06-15T01:07:11.118Z,65.77
2017-06-15T01:08:11.114Z,66.06
2017-06-15T01:09:10.802Z,66.15
2017-06-15T01:10:11.103Z,66.06
2017-06-15T01:11:11.095Z,66.06
2017-06-15T01:12:11.088Z,66.15
2017-06-15T01:13:11.081Z,66.06
2017-06-15T01:14:11.078Z,65.96
2017-06-15T01:15:11.074Z,65.77
2017-06-15T01:16:11.070Z,65.87
2017-06-15T01:17:10.757Z,66.06
2017-06-15T01:18:11.056Z,65.87
2017-06-15T01:19:11.047Z,65.58
2017-06-15T01:20:11.042Z,65.48
2017-06-15T01:21:11.035Z,65.48
2017-06-15T01:22:11.028Z,64.88
2017-06-15T01:23:11.021Z,65.48
2017-06-15T01:24:11.018Z,65.67
2017-06-15T01:25:11.010Z,65.83
2017-06-15T01:26:11.010Z,65.83
2017-06-15T01:27:10.999Z,65.93
2017-06-15T01:28:10.993Z,66.02
2017-06-15T01:29:10.987Z,65.74
2017-06-15T01:30:10.982Z,65.93
2017-06-15T01:31:10.974Z,66.02
2017-06-15T01:32:10.972Z,65.74
2017-06-15T01:33:10.963Z,65.74
2017-06-15T01:34:10.958Z,65.83
2017-06-15T01:35:10.952Z,65.83
2017-06-15T01:36:10.948Z,65.74
2017-06-15T01:37:10.939Z,65.93
2017-06-15T01:38:10.933Z,65.83
2017-06-15T01:39:10.929Z,66.02
2017-06-15T01:40:10.922Z,65.83
2017-06-15T01:41:10.915Z,65.83
2017-06-15T01:42:10.915Z,66.02
2017-06-15T01:43:10.907Z,65.55
2017-06-15T01:44:10.897Z,65.55
2017-06-15T01:45:10.895Z,65.55
2017-06-15T01:46:10.885Z,65.36
2017-06-15T01:47:10.879Z,65.26
2017-06-15T01:48:10.873Z,65.17
2017-06-15T01:49:10.868Z,65.55
2017-06-15T01:50:10.861Z,65.17
2017-06-15T01:51:10.855Z,65.45
2017-06-15T01:52:10.850Z,65.45
2017-06-15T01:53:10.842Z,65.93
2017-06-15T01:54:10.844Z,65.83
2017-06-15T01:55:10.834Z,65.83
2017-06-15T01:56:10.825Z,66.02
2017-06-15T01:57:10.818Z,65.83
2017-06-15T01:58:10.812Z,65.45
2017-06-15T01:59:10.806Z,65.45
2017-06-15T02:00:10.802Z,65.17
2017-06-15T02:01:10.796Z,64.97
2017-06-15T02:02:10.788Z,65.26
2017-06-15T02:03:10.783Z,65.36
2017-06-15T02:04:10.775Z,65.36
2017-06-15T02:05:10.773Z,65.55
2017-06-15T02:06:10.764Z,65.45
2017-06-15T02:07:10.795Z,65.83
2017-06-15T02:08:10.750Z,65.64
2017-06-15T02:09:10.746Z,66.02
2017-06-15T02:10:10.745Z,65.93
2017-06-15T02:11:10.734Z,66.02
2017-06-15T02:12:10.728Z,65.74
2017-06-15T02:13:10.722Z,65.64
2017-06-15T02:14:10.717Z,65.93
2017-06-15T02:15:10.709Z,65.45
2017-06-15T02:16:10.399Z,65.26
2017-06-15T02:17:10.701Z,65.36
2017-06-15T02:18:10.695Z,65.55
2017-06-15T02:19:10.685Z,65.64
2017-06-15T02:20:10.679Z,65.74
2017-06-15T02:21:10.674Z,66.02
2017-06-15T02:22:10.669Z,66.02
2017-06-15T02:23:10.660Z,65.83
2017-06-15T02:24:10.656Z,65.83
2017-06-15T02:25:10.648Z,65.45
2017-06-15T02:26:10.644Z,65.83
2017-06-15T02:27:10.636Z,65.74
2017-06-15T02:28:10.630Z,65.93
2017-06-15T02:29:10.622Z,65.93
2017-06-15T02:30:10.618Z,65.74
2017-06-15T02:31:10.612Z,65.83
2017-06-15T02:32:10.605Z,65.83
2017-06-15T02:33:10.598Z,65.64
2017-06-15T02:34:10.595Z,65.93
2017-06-15T02:35:10.587Z,65.64
2017-06-15T02:36:10.609Z,66.02
2017-06-15T02:37:10.573Z,65.74
2017-06-15T02:38:10.568Z,65.74
2017-06-15T02:40:10.554Z,66.5
2017-06-15T02:41:10.549Z,65.93
2017-06-15T02:42:10.543Z,66.31
2017-06-15T02:43:10.535Z,66.31
2017-06-15T02:44:10.530Z,66.02
2017-06-15T02:45:10.525Z,66.41
2017-06-15T02:46:10.518Z,66.31
2017-06-15T02:47:10.511Z,66.31
2017-06-15T02:48:10.506Z,66.31
2017-06-15T02:49:10.499Z,66.31
2017-06-15T02:50:10.495Z,66.41
2017-06-15T02:51:10.486Z,66.41
2017-06-15T02:52:10.480Z,66.12
2017-06-15T02:53:10.475Z,65.93
2017-06-15T02:54:10.468Z,66.02
2017-06-15T02:55:10.159Z,66.22
2017-06-15T02:56:10.455Z,66.31
2017-06-15T02:57:10.448Z,66.6
2017-06-15T02:58:10.455Z,66.5
2017-06-15T02:59:10.438Z,66.6
2017-06-15T03:00:10.430Z,66.41
2017-06-15T03:01:10.424Z,66.31
2017-06-15T03:02:10.418Z,66.5
2017-06-15T03:03:10.411Z,66.88
2017-06-15T03:04:10.406Z,66.78
2017-06-15T03:05:10.399Z,66.88
2017-06-15T03:06:10.393Z,67.17
2017-06-15T03:07:10.386Z,66.78
2017-06-15T03:08:10.382Z,66.78
2017-06-15T03:09:10.376Z,67.07
2017-06-15T03:10:10.386Z,67.07
2017-06-15T03:11:10.363Z,67.07
2017-06-15T03:12:10.357Z,67.17
2017-06-15T03:13:10.046Z,67.07
2017-06-15T03:14:10.346Z,66.78
2017-06-15T03:15:10.639Z,67.27
2017-06-15T03:16:10.334Z,67.27
2017-06-15T03:17:10.325Z,67.17
2017-06-15T03:18:10.321Z,66.6
2017-06-15T03:19:10.314Z,67.07
2017-06-15T03:20:10.311Z,66.98
2017-06-15T03:21:10.305Z,67.07
2017-06-15T03:22:10.297Z,66.98
2017-06-15T03:23:10.291Z,66.82
2017-06-15T03:24:10.283Z,66.6
2017-06-15T03:25:10.278Z,67.01
2017-06-15T03:26:10.273Z,66.92
2017-06-15T03:27:10.267Z,67.3
2017-06-15T03:28:10.260Z,67.21
2017-06-15T03:29:10.256Z,67.11
2017-06-15T03:30:10.250Z,67.3
2017-06-15T03:31:10.243Z,67.11
2017-06-15T03:32:10.236Z,67.11
2017-06-15T03:33:10.231Z,67.11
2017-06-15T03:34:10.226Z,66.53
2017-06-15T03:35:10.219Z,66.63
2017-06-15T03:36:09.910Z,66.95
2017-06-15T03:37:10.209Z,66.76
2017-06-15T03:38:10.202Z,66.66
2017-06-15T03:39:10.198Z,66.38
2017-06-15T03:40:10.192Z,66.5
2017-06-15T03:41:10.189Z,66.41
2017-06-15T03:42:10.180Z,65.93
2017-06-15T03:43:10.178Z,66.25
2017-06-15T03:44:10.172Z,65.58
2017-06-15T03:45:10.167Z,65.23
2017-06-15T03:46:10.162Z,64.56
2017-06-15T03:47:10.157Z,63.83
2017-06-15T03:48:09.850Z,63.73
2017-06-15T03:49:10.148Z,63.19
2017-06-15T03:50:10.145Z,62.55
2017-06-15T03:51:10.143Z,62.49
2017-06-15T03:52:10.138Z,62.2
2017-06-15T03:53:10.135Z,61.75
2017-06-15T03:54:10.131Z,61.4
2017-06-15T03:55:10.129Z,61.4
2017-06-15T03:56:10.126Z,61.14
2017-06-15T03:57:10.126Z,61.27
2017-06-15T03:58:10.122Z,60.88
2017-06-15T03:59:10.120Z,61.01
2017-06-15T04:00:10.119Z,60.85
2017-06-15T04:01:10.116Z,61.16
2017-06-15T04:02:10.117Z,60.49
2017-06-15T04:03:10.115Z,60.33
2017-06-15T04:04:10.114Z,60.46
2017-06-15T04:05:10.113Z,59.49
2017-06-15T04:06:10.113Z,59.62
2017-06-15T04:07:10.112Z,59.65
2017-06-15T04:08:10.114Z,58.81
2017-06-15T04:09:10.115Z,58.42
2017-06-15T04:10:09.812Z,57.78
2017-06-15T04:11:09.814Z,57.23
2017-06-15T04:12:10.117Z,56.2
2017-06-15T04:13:10.123Z,56.22
2017-06-15T04:14:10.121Z,55.45
2017-06-15T04:15:10.124Z,55.09
2017-06-15T04:16:10.127Z,53.96
2017-06-15T04:17:10.132Z,53.89
2017-06-15T04:18:09.830Z,53.14
2017-06-15T04:19:10.137Z,52.29
2017-06-15T04:20:10.140Z,52.2
2017-06-15T04:21:10.146Z,50.87
2017-06-15T04:22:10.149Z,49.92
2017-06-15T04:23:10.156Z,48.97
2017-06-15T04:24:10.160Z,48.32
2017-06-15T04:25:10.166Z,47.16
2017-06-15T04:26:10.172Z,47.08
2017-06-15T04:27:10.176Z,46.21
2017-06-15T04:28:09.878Z,45.94
2017-06-15T04:29:10.189Z,45.36
2017-06-15T04:30:10.195Z,44.97
2017-06-15T04:31:10.200Z,44.29
2017-06-15T04:32:10.206Z,44
2017-06-15T04:33:10.210Z,43.9
2017-06-15T04:34:10.218Z,43.8
2017-06-15T04:35:10.225Z,43.8
2017-06-15T04:36:10.231Z,43.4
2017-06-15T04:37:10.239Z,43.4
2017-06-15T04:38:10.272Z,43.3
2017-06-15T04:39:10.246Z,43.37
2017-06-15T04:40:10.254Z,43.47
2017-06-15T04:41:10.256Z,43.76
2017-06-15T04:42:09.958Z,44.13
2017-06-15T04:43:09.964Z,44.71
2017-06-15T04:44:10.269Z,44.98
2017-06-15T04:45:10.275Z,45.27
2017-06-15T04:46:10.280Z,45.64
2017-06-15T04:47:10.293Z,46.12
2017-06-15T04:48:10.286Z,46.39
2017-06-15T04:49:10.294Z,46.97
2017-06-15T04:50:10.325Z,47.06
2017-06-15T04:51:10.298Z,47.24
2017-06-15T04:52:10.306Z,47.24
2017-06-15T04:53:10.304Z,47.62
2017-06-15T04:54:10.307Z,48.08
2017-06-15T04:55:10.310Z,48.37
2017-06-15T04:56:10.312Z,48.86
2017-06-15T04:57:10.316Z,48.64
2017-06-15T04:58:10.322Z,48.93
2017-06-15T04:59:10.322Z,49.22
2017-06-15T05:00:10.324Z,50.28
2017-06-15T05:01:10.325Z,49.49
2017-06-15T05:02:10.328Z,50.16
2017-06-15T05:03:10.329Z,50.45
2017-06-15T05:04:10.332Z,50.26
2017-06-15T05:05:10.334Z,50.91
2017-06-15T05:06:10.334Z,50.81
2017-06-15T05:07:10.339Z,51.2
2017-06-15T05:08:10.339Z,51.07
2017-06-15T05:09:10.037Z,51.56
2017-06-15T05:10:10.343Z,51.75
2017-06-15T05:11:10.344Z,51.56
2017-06-15T05:12:10.346Z,51.87
2017-06-15T05:13:10.349Z,51.03
2017-06-15T05:14:10.350Z,50.48
2017-06-15T05:15:10.354Z,49.34
2017-06-15T05:16:10.356Z,48.79
2017-06-15T05:17:10.361Z,48.59
2017-06-15T05:18:10.374Z,47.16
2017-06-15T05:19:10.367Z,47.06
2017-06-15T05:20:10.372Z,46.6
2017-06-15T05:21:10.378Z,45.95
2017-06-15T05:22:10.383Z,45.47
2017-06-15T05:23:10.385Z,44.44
2017-06-15T05:24:10.391Z,42.99
2017-06-15T05:25:10.395Z,42.23
2017-06-15T05:26:10.098Z,41.3
2017-06-15T05:27:10.411Z,39.57
2017-06-15T05:28:10.414Z,38.81
2017-06-15T05:29:10.431Z,37.66
2017-06-15T05:30:10.434Z,37.1
2017-06-15T05:31:10.438Z,36.14
2017-06-15T05:32:10.447Z,34.89
2017-06-15T05:33:10.454Z,33.73
2017-06-15T05:34:10.463Z,32.97
2017-06-15T05:35:10.473Z,32.5
2017-06-15T05:36:10.482Z,31.15
2017-06-15T05:37:10.492Z,30.37
2017-06-15T05:38:10.503Z,30.58
2017-06-15T05:39:10.510Z,30.38
2017-06-15T05:40:10.521Z,29.52
2017-06-15T05:41:10.532Z,29.63
2017-06-15T05:42:10.541Z,29.34
2017-06-15T05:43:10.552Z,28.67
2017-06-15T05:44:10.562Z,28.09
2017-06-15T05:45:10.575Z,27.91
2017-06-15T05:46:10.583Z,27.23
2017-06-15T05:47:10.595Z,26.45
2017-06-15T05:48:10.605Z,25.78
2017-06-15T05:49:10.617Z,25.31
2017-06-15T05:50:10.629Z,24.82
2017-06-15T05:51:10.642Z,24.63
2017-06-15T05:52:10.656Z,24.24
2017-06-15T05:53:10.666Z,24.25
2017-06-15T05:54:10.681Z,23.96
2017-06-15T05:55:10.690Z,23.86
2017-06-15T05:56:10.702Z,23.57
2017-06-15T05:57:10.716Z,23.29
2017-06-15T05:58:10.728Z,22.89
2017-06-15T05:59:10.441Z,22.7
2017-06-15T06:00:10.754Z,22.02
2017-06-15T06:01:10.766Z,21.73
2017-06-15T06:02:10.779Z,21.34
2017-06-15T06:03:10.794Z,21.64
2017-06-15T06:04:10.805Z,21.45
2017-06-15T06:05:10.820Z,20.57
2017-06-15T06:06:10.835Z,20.78
2017-06-15T06:07:10.846Z,20.57
2017-06-15T06:08:10.859Z,20.68
2017-06-15T06:09:10.873Z,19.9
2017-06-15T06:10:10.586Z,19.9
2017-06-15T06:11:10.601Z,20.1
2017-06-15T06:12:10.916Z,19.03
2017-06-15T06:13:10.627Z,18.94
2017-06-15T06:14:10.947Z,19.23
2017-06-15T06:15:10.960Z,19.43
2017-06-15T06:16:10.974Z,19.04
2017-06-15T06:17:10.990Z,18.65
2017-06-15T06:18:11.006Z,18.55
2017-06-15T06:19:10.716Z,18.46
2017-06-15T06:20:11.037Z,18.06
2017-06-15T06:21:11.050Z,17.76
2017-06-15T06:22:11.065Z,17.57
2017-06-15T06:23:10.775Z,17.86
2017-06-15T06:24:11.097Z,17.37
2017-06-15T06:25:11.111Z,17.37
2017-06-15T06:26:11.126Z,16.97
2017-06-15T06:27:11.141Z,16.97
2017-06-15T06:28:11.157Z,16.67
2017-06-15T06:29:11.175Z,16.48
2017-06-15T06:30:11.187Z,16.78
2017-06-15T06:31:11.203Z,16.38
2017-06-15T06:32:11.221Z,16.58
2017-06-15T06:33:11.236Z,16.38
2017-06-15T06:34:11.251Z,16.97
2017-06-15T06:35:11.267Z,16.87
2017-06-15T06:36:11.283Z,16.78
2017-06-15T06:37:11.299Z,16.48
2017-06-15T06:38:11.314Z,16.58
2017-06-15T06:39:11.330Z,16.58
2017-06-15T06:40:11.347Z,16.58
2017-06-15T06:41:11.364Z,16.58
2017-06-15T06:42:11.382Z,16
2017-06-15T06:43:11.394Z,15.8
2017-06-15T06:44:11.412Z,15.8
2017-06-15T06:45:11.430Z,15.89
2017-06-15T06:46:11.443Z,16.09
2017-06-15T06:47:11.459Z,16.09
2017-06-15T06:48:11.476Z,15.69
2017-06-15T06:49:11.189Z,16.09
2017-06-15T06:50:11.511Z,15.89
2017-06-15T06:51:11.526Z,15.79
2017-06-15T06:52:11.541Z,15.89
2017-06-15T06:53:11.558Z,16.09
2017-06-15T06:54:11.577Z,16.09
2017-06-15T06:55:11.591Z,15.79
2017-06-15T06:56:11.610Z,15.69
2017-06-15T06:57:11.624Z,15.59
2017-06-15T06:58:11.640Z,15.49
2017-06-15T06:59:11.658Z,15.39
2017-06-15T07:00:11.673Z,15.79
2017-06-15T07:01:11.691Z,15.79
2017-06-15T07:02:11.707Z,15.49
2017-06-15T07:03:11.724Z,15.69
2017-06-15T07:04:11.743Z,15.69
2017-06-15T07:05:11.757Z,15.3
2017-06-15T07:06:11.774Z,15.39
2017-06-15T07:07:11.794Z,15.3
2017-06-15T07:08:11.807Z,15.3
2017-06-15T07:09:11.825Z,15
2017-06-15T07:10:11.843Z,15.39
2017-06-15T07:11:11.556Z,15.2
2017-06-15T07:12:11.875Z,15.29
2017-06-15T07:13:11.589Z,15.39
2017-06-15T07:14:11.907Z,15.3
2017-06-15T07:15:11.622Z,14.9
2017-06-15T07:16:11.941Z,15.49
2017-06-15T07:17:11.654Z,15.2
2017-06-15T07:18:11.672Z,15.2
2017-06-15T07:19:11.992Z,15.2
2017-06-15T07:20:12.008Z,15.2
2017-06-15T07:21:11.721Z,15.3
2017-06-15T07:22:12.040Z,15
2017-06-15T07:23:12.057Z,15.2
2017-06-15T07:24:12.076Z,15.3
2017-06-15T07:25:12.093Z,15.6
2017-06-15T07:26:12.107Z,14.71
2017-06-15T07:27:12.125Z,15.3
2017-06-15T07:28:12.141Z,14.61
2017-06-15T07:29:12.161Z,14.71
2017-06-15T07:30:12.173Z,15.2
2017-06-15T07:31:12.195Z,15.2
2017-06-15T07:32:12.209Z,15.39
2017-06-15T07:33:12.224Z,15.48
2017-06-15T07:34:12.240Z,15.69
2017-06-15T07:35:12.257Z,15.69
2017-06-15T07:36:12.276Z,15.88
2017-06-15T07:37:12.290Z,15.58
2017-06-15T07:38:12.308Z,15.88
2017-06-15T07:39:12.324Z,15.67
2017-06-15T07:40:12.341Z,15.38
2017-06-15T07:41:12.358Z,15.78
2017-06-15T07:42:12.071Z,15.48
2017-06-15T07:43:12.391Z,15.58
2017-06-15T07:44:12.407Z,15.48
2017-06-15T07:45:12.424Z,15.67
2017-06-15T07:46:12.439Z,15.58
2017-06-15T07:47:12.456Z,15.08
2017-06-15T07:48:12.168Z,15.57
2017-06-15T07:49:12.491Z,15.86
2017-06-15T07:50:12.507Z,15.66
2017-06-15T07:51:12.522Z,16.14
2017-06-15T07:52:12.538Z,16.05
2017-06-15T07:53:12.553Z,16.44
2017-06-15T07:54:12.273Z,16.64
2017-06-15T07:55:12.586Z,16.93
2017-06-15T07:56:12.603Z,16.93
2017-06-15T07:57:12.617Z,16.64
2017-06-15T07:58:12.634Z,17.03
2017-06-15T07:59:12.688Z,16.35
2017-06-15T08:00:12.666Z,16.35
2017-06-15T08:01:12.683Z,16.64
2017-06-15T08:02:12.698Z,16.74
2017-06-15T08:03:12.712Z,16.54
2017-06-15T08:04:12.730Z,16.54
2017-06-15T08:05:12.745Z,16.83
2017-06-15T08:06:12.760Z,16.54
2017-06-15T08:07:12.774Z,16.74
2017-06-15T08:08:12.487Z,16.73
2017-06-15T08:09:12.806Z,16.74
2017-06-15T08:10:12.825Z,16.33
2017-06-15T08:11:12.838Z,16.93
2017-06-15T08:12:12.852Z,17.21
2017-06-15T08:13:12.870Z,17.31
2017-06-15T08:14:12.888Z,17.6
2017-06-15T08:15:12.900Z,17.5
2017-06-15T08:16:12.610Z,17.69
2017-06-15T08:17:12.930Z,17.4
2017-06-15T08:18:12.641Z,17.5
2017-06-15T08:19:12.961Z,17.49
2017-06-15T08:20:12.976Z,17.79
2017-06-15T08:21:12.991Z,17.49
2017-06-15T08:22:13.008Z,17.69
2017-06-15T08:23:13.022Z,17.49
2017-06-15T08:24:13.036Z,18.08
2017-06-15T08:25:13.053Z,18.46
2017-06-15T08:26:13.072Z,18.37
2017-06-15T08:27:13.083Z,18.46
2017-06-15T08:28:13.098Z,18.46
2017-06-15T08:29:13.118Z,18.37
2017-06-15T08:30:13.132Z,18.27
2017-06-15T08:31:13.145Z,18.87
2017-06-15T08:32:13.159Z,18.08
2017-06-15T08:33:13.184Z,17.79
2017-06-15T08:34:13.190Z,18.48
2017-06-15T08:35:13.207Z,18.76
2017-06-15T08:36:13.222Z,18.46
2017-06-15T08:37:13.237Z,18.95
2017-06-15T08:38:13.251Z,19.34
2017-06-15T08:39:13.266Z,19.24
2017-06-15T08:40:13.286Z,19.13
2017-06-15T08:41:13.302Z,19.23
2017-06-15T08:42:13.314Z,19.04
2017-06-15T08:43:13.332Z,18.64
2017-06-15T08:44:13.045Z,19.23
2017-06-15T08:45:13.361Z,19.04
2017-06-15T08:46:13.382Z,19.13
2017-06-15T08:47:13.392Z,19.13
2017-06-15T08:48:13.407Z,19.23
2017-06-15T08:49:13.424Z,19.43
2017-06-15T08:50:13.438Z,18.94
2017-06-15T08:51:13.452Z,19.23
2017-06-15T08:52:13.469Z,19.33
2017-06-15T08:53:13.483Z,19.23
2017-06-15T08:54:13.498Z,18.84
2017-06-15T08:55:13.215Z,18.84
2017-06-15T08:56:13.529Z,18.84
2017-06-15T08:57:13.543Z,19.32
2017-06-15T08:58:13.256Z,19.12
2017-06-15T08:59:13.574Z,19.12
2017-06-15T09:00:13.284Z,19.31
2017-06-15T09:01:13.300Z,19.79
2017-06-15T09:02:13.619Z,19.59
2017-06-15T09:03:13.328Z,20.17
2017-06-15T09:04:13.644Z,20.56
2017-06-15T09:05:13.656Z,21.23
2017-06-15T09:06:13.671Z,22.39
2017-06-15T09:07:13.682Z,22.87
2017-06-15T09:08:13.693Z,23.25
2017-06-15T09:09:13.706Z,23.54
2017-06-15T09:10:13.722Z,23.54
2017-06-15T09:11:13.729Z,23.54
2017-06-15T09:12:13.740Z,24.21
2017-06-15T09:13:13.751Z,24.19
2017-06-15T09:14:13.759Z,24.29
2017-06-15T09:15:13.769Z,24.38
2017-06-15T09:16:13.781Z,24.38
2017-06-15T09:17:13.790Z,25.34
2017-06-15T09:18:13.517Z,26.02
2017-06-15T09:19:13.504Z,25.23
2017-06-15T09:20:13.817Z,26.01
2017-06-15T09:21:13.826Z,25.9
2017-06-15T09:22:13.833Z,26.68
2017-06-15T09:23:13.840Z,26.87
2017-06-15T09:24:13.847Z,26.76
2017-06-15T09:25:13.855Z,27.44
2017-06-15T09:26:13.865Z,27.82
2017-06-15T09:27:13.568Z,27.62
2017-06-15T09:28:13.576Z,28.02
2017-06-15T09:29:13.884Z,28.5
2017-06-15T09:30:13.590Z,28.49
2017-06-15T09:31:13.600Z,29.26
2017-06-15T09:32:13.908Z,29.16
2017-06-15T09:33:13.608Z,29.55
2017-06-15T09:34:13.918Z,29.55
2017-06-15T09:35:13.622Z,30.24
2017-06-15T09:36:13.627Z,29.65
2017-06-15T09:37:13.940Z,29.85
2017-06-15T09:38:13.640Z,29.85
2017-06-15T09:39:13.649Z,29.75
2017-06-15T09:40:13.955Z,30.12
2017-06-15T09:41:13.659Z,30.22
2017-06-15T09:42:13.701Z,30.32
2017-06-15T09:43:13.973Z,30.22
2017-06-15T09:44:13.678Z,29.54
2017-06-15T09:45:13.682Z,29.35
2017-06-15T09:46:13.995Z,30.02
2017-06-15T09:47:13.694Z,30.32
2017-06-15T09:48:14.003Z,29.93
2017-06-15T09:49:14.011Z,30.32
2017-06-15T09:50:13.710Z,29.93
2017-06-15T09:51:13.716Z,29.25
2017-06-15T09:52:13.720Z,29.05
2017-06-15T09:53:14.036Z,29.35
2017-06-15T09:54:13.731Z,29.15
2017-06-15T09:55:14.040Z,29.14
2017-06-15T09:56:13.741Z,29.24
2017-06-15T09:57:14.084Z,29.24
2017-06-15T09:58:13.750Z,29.62
2017-06-15T09:59:14.059Z,29.82
2017-06-15T10:00:13.763Z,30.21
2017-06-15T10:01:13.768Z,30.21
2017-06-15T10:02:14.077Z,30.3
2017-06-15T10:03:14.080Z,30.01
2017-06-15T10:04:14.085Z,30.19
2017-06-15T10:05:13.789Z,30.98
2017-06-15T10:06:13.793Z,30.88
2017-06-15T10:07:13.794Z,30.87
2017-06-15T10:09:13.805Z,30.3
2017-06-15T10:10:14.114Z,30
2017-06-15T10:11:13.814Z,29.91
2017-06-15T10:12:14.122Z,30.29
2017-06-15T10:13:14.127Z,30.21
2017-06-15T10:14:13.828Z,30.11
2017-06-15T10:15:13.834Z,30.01
2017-06-15T10:16:14.141Z,30.3
2017-06-15T10:17:14.148Z,30.5
2017-06-15T10:18:13.847Z,31.08
2017-06-15T10:19:14.156Z,31.08
2017-06-15T10:20:14.158Z,30.98
2017-06-15T10:21:14.163Z,30.3
2017-06-15T10:22:14.170Z,30.3
2017-06-15T10:23:14.175Z,30.21
2017-06-15T10:24:13.875Z,29.91
2017-06-15T10:25:14.181Z,30.21
2017-06-15T10:26:13.885Z,30.69
2017-06-15T10:27:14.192Z,30.88
2017-06-15T10:28:13.893Z,31.08
2017-06-15T10:29:14.199Z,30.98
2017-06-15T10:30:14.206Z,31.18
2017-06-15T10:31:14.209Z,30.59
2017-06-15T10:32:13.910Z,30.69
2017-06-15T10:33:14.219Z,30.98
2017-06-15T10:34:13.920Z,30.97
2017-06-15T10:35:14.227Z,31.07
2017-06-15T10:36:13.928Z,31.08
2017-06-15T10:37:13.933Z,31.37
2017-06-15T10:38:14.239Z,31.57
2017-06-15T10:39:13.942Z,31.27
2017-06-15T10:40:13.947Z,30.4
2017-06-15T10:41:14.254Z,31.08
2017-06-15T10:42:13.954Z,30.88
2017-06-15T10:43:13.958Z,31.26
2017-06-15T10:44:13.970Z,31.08
2017-06-15T10:45:13.968Z,30.87
2017-06-15T10:46:14.275Z,31.57
2017-06-15T10:47:14.278Z,30.3
2017-06-15T10:48:14.285Z,30.5
2017-06-15T10:49:13.984Z,30.3
2017-06-15T10:50:14.293Z,29.33
2017-06-15T10:51:14.297Z,29.51
2017-06-15T10:52:14.303Z,29.41
2017-06-15T10:53:14.309Z,29.22
2017-06-15T10:54:14.008Z,29.8
2017-06-15T10:55:14.317Z,30.29
2017-06-15T10:56:14.319Z,30.29
2017-06-15T10:57:14.359Z,30.19
2017-06-15T10:58:14.328Z,30.87
2017-06-15T10:59:14.335Z,29.8
2017-06-15T11:00:14.336Z,30.58
2017-06-15T11:01:14.343Z,30.29
2017-06-15T11:02:14.349Z,30.48
2017-06-15T11:03:14.349Z,30.29
2017-06-15T11:04:14.353Z,30.77
2017-06-15T11:05:14.357Z,30.38
2017-06-15T11:06:14.362Z,30.29
2017-06-15T11:07:14.368Z,29.61
2017-06-15T11:08:14.370Z,29.9
2017-06-15T11:09:14.372Z,29.41
2017-06-15T11:10:14.376Z,29.8
2017-06-15T11:11:14.382Z,30.19
2017-06-15T11:12:14.386Z,29.71
2017-06-15T11:13:14.390Z,29.9
2017-06-15T11:14:14.395Z,29.79
2017-06-15T11:15:14.397Z,30.95
2017-06-15T11:16:14.401Z,30.18
2017-06-15T11:17:14.407Z,30.18
2017-06-15T11:18:14.411Z,30.09
2017-06-15T11:19:14.415Z,29.98
2017-06-15T11:20:14.420Z,31.44
2017-06-15T11:21:14.423Z,31.44
2017-06-15T11:22:14.426Z,30.95
2017-06-15T11:23:14.436Z,30.76
2017-06-15T11:24:14.435Z,30.18
2017-06-15T11:25:14.440Z,30.37
2017-06-15T11:26:14.441Z,30.08
2017-06-15T11:27:14.444Z,30.19
2017-06-15T11:28:14.450Z,30.76
2017-06-15T11:29:14.454Z,30.27
2017-06-15T11:30:14.156Z,29.79
2017-06-15T11:31:14.462Z,29.6
2017-06-15T11:32:14.466Z,30.27
2017-06-15T11:33:14.470Z,29.98
2017-06-15T11:34:14.472Z,30.18
2017-06-15T11:35:14.477Z,30.45
2017-06-15T11:36:14.481Z,30.45
2017-06-15T11:37:14.486Z,30.45
2017-06-15T11:38:14.184Z,30.35
2017-06-15T11:39:14.491Z,31.04
2017-06-15T11:40:14.496Z,31.32
2017-06-15T11:41:14.499Z,31.42
2017-06-15T11:42:14.503Z,31.13
2017-06-15T11:43:14.506Z,31.05
2017-06-15T11:44:14.510Z,30.66
2017-06-15T11:45:14.515Z,30.27
2017-06-15T11:46:14.518Z,30.18
2017-06-15T11:47:14.532Z,29.3
2017-06-15T11:48:14.530Z,29.5
2017-06-15T11:49:14.529Z,28.91
2017-06-15T11:50:14.534Z,29.4
2017-06-15T11:51:14.537Z,29.3
2017-06-15T11:52:14.542Z,28.83
2017-06-15T11:53:14.544Z,29.51
2017-06-15T11:54:14.549Z,29.32
2017-06-15T11:55:14.552Z,29.71
2017-06-15T11:56:14.556Z,29.51
2017-06-15T11:57:14.561Z,29.41
2017-06-15T11:58:14.564Z,28.64
2017-06-15T11:59:14.570Z,28.36
2017-06-15T12:00:14.574Z,27.87
2017-06-15T12:01:14.578Z,27.97
2017-06-15T12:02:14.581Z,28.55
2017-06-15T12:03:14.587Z,28.75
2017-06-15T12:04:14.592Z,28.55
2017-06-15T12:05:14.594Z,28.85
2017-06-15T12:06:14.598Z,28.45
2017-06-15T12:07:14.605Z,28.17
2017-06-15T12:08:14.606Z,27.78
2017-06-15T12:09:14.611Z,27.68
2017-06-15T12:10:14.616Z,27.98
2017-06-15T12:11:14.621Z,27.79
2017-06-15T12:12:14.625Z,27.79
2017-06-15T12:13:14.628Z,27.89
2017-06-15T12:14:14.633Z,27.59
2017-06-15T12:15:14.637Z,27.59
2017-06-15T12:16:14.644Z,27.4
2017-06-15T12:17:14.647Z,27.98
2017-06-15T12:18:14.650Z,27.89
2017-06-15T12:19:14.656Z,27.69
2017-06-15T12:20:14.665Z,27.79
2017-06-15T12:21:14.703Z,27.59
2017-06-15T12:22:14.669Z,27.89
2017-06-15T12:23:14.671Z,27.59
2017-06-15T12:24:14.677Z,27.4
2017-06-15T12:25:14.682Z,27.01
2017-06-15T12:26:14.686Z,26.62
2017-06-15T12:27:14.690Z,26.23
2017-06-15T12:28:14.694Z,26.43
2017-06-15T12:29:14.395Z,25.95
2017-06-15T12:30:14.706Z,25.85
2017-06-15T12:31:14.709Z,26.04
2017-06-15T12:32:14.713Z,25.75
2017-06-15T12:33:14.718Z,25.95
2017-06-15T12:34:14.728Z,26.04
2017-06-15T12:35:14.725Z,25.95
2017-06-15T12:36:14.731Z,26.43
2017-06-15T12:37:14.738Z,26.53
2017-06-15T12:38:14.738Z,26.62
2017-06-15T12:39:14.744Z,26.04
2017-06-15T12:40:14.748Z,26.43
2017-06-15T12:41:14.448Z,27.31
2017-06-15T12:42:14.757Z,27.59
2017-06-15T12:43:14.762Z,27.59
2017-06-15T12:44:14.461Z,27.5
2017-06-15T12:45:14.774Z,27.59
2017-06-15T12:46:14.775Z,27.32
2017-06-15T12:47:14.781Z,27.42
2017-06-15T12:48:14.784Z,26.73
2017-06-15T12:49:14.788Z,27.32
2017-06-15T12:50:14.796Z,27.42
2017-06-15T12:51:14.796Z,26.64
2017-06-15T12:52:14.804Z,26.54
2017-06-15T12:53:14.806Z,26.34
2017-06-15T12:54:14.812Z,26.54
2017-06-15T12:55:14.817Z,26.44
2017-06-15T12:56:14.823Z,25.96
2017-06-15T12:57:14.826Z,25.29
2017-06-15T12:58:14.828Z,24.99